TimePDT,TemperatureF,Dew PointF,Humidity,Sea Level PressureIn,VisibilityMPH,Wind Direction,Wind SpeedMPH,Gust SpeedMPH,PrecipitationIn,Events,Conditions,WindDirDegrees,DateUTC
12:49 AM,-9999,-9999,N/A,-9999,-9999.0,Calm,Calm,-,N/A,,Partly Cloudy,0,2013-06-06 07:49:00
12:54 AM,-9999,-9999,N/A,-9999,-9999.0,North,3.5,-,N/A,,Partly Cloudy,10,2013-06-06 07:54:00
1:54 AM,-9999,-9999,N/A,-9999,-9999.0,Calm,Calm,-,N/A,,Scattered Clouds,0,2013-06-06 08:54:00
2:04 AM,-9999,-9999,N/A,-9999,-9999.0,Calm,Calm,-,N/A,,Mostly Cloudy,0,2013-06-06 09:04:00
2:54 AM,-9999,-9999,N/A,-9999,-9999.0,Calm,Calm,-,N/A,,Overcast,0,2013-06-06 09:54:00
3:54 AM,-9999,-9999,N/A,-9999,-9999.0,Calm,Calm,-,N/A,,Overcast,0,2013-06-06 10:54:00
4:54 AM,60.8,54.5,80,29.91,6.0,North,4.6,-,N/A,,Haze,350,2013-06-06 11:54:00
5:54 AM,59.9,54.3,82,29.91,6.0,North,3.5,-,N/A,,Haze,10,2013-06-06 12:54:00
6:54 AM,60.4,54.9,82,29.92,5.0,NW,4.6,-,N/A,,Haze,310,2013-06-06 13:54:00
7:54 AM,60.4,55.8,85,29.94,4.0,West,5.8,-,N/A,,Overcast,270,2013-06-06 14:54:00
8:54 AM,60.6,55.8,84,29.95,4.0,West,6.9,-,N/A,,Overcast,270,2013-06-06 15:54:00
9:54 AM,61.9,56.3,82,29.95,4.0,West,4.6,-,N/A,,Haze,280,2013-06-06 16:54:00
10:54 AM,62.4,56.3,80,29.96,6.0,SW,5.8,-,N/A,,Haze,230,2013-06-06 17:54:00
11:54 AM,64.2,57.2,78,29.95,5.0,SW,8.1,-,N/A,,Haze,230,2013-06-06 18:54:00
12:54 PM,63.7,56.3,77,29.96,5.0,Variable,6.9,-,N/A,,Haze,0,2013-06-06 19:54:00
1:54 PM,64.9,57.7,77,29.95,5.0,WSW,10.4,-,N/A,,Haze,240,2013-06-06 20:54:00
2:54 PM,65.7,57.9,76,29.94,6.0,WSW,11.5,-,N/A,,Haze,250,2013-06-06 21:54:00
3:50 PM,64.4,57.2,77,29.91,6.0,West,10.4,-,N/A,,Haze,280,2013-06-06 22:50:00
3:54 PM,64.2,56.8,77,29.91,6.0,West,10.4,-,N/A,,Haze,280,2013-06-06 22:54:00
4:54 PM,64.0,56.3,76,29.91,6.0,SW,8.1,-,N/A,,Haze,230,2013-06-06 23:54:00
5:54 PM,62.6,56.1,79,29.91,6.0,West,12.7,-,N/A,,Haze,280,2013-06-07 00:54:00
6:54 PM,61.9,55.8,80,29.91,7.0,West,11.5,-,0.00,,Mostly Cloudy,280,2013-06-07 01:54:00
7:54 PM,61.2,55.6,82,29.91,7.0,WNW,8.1,-,N/A,,Mostly Cloudy,300,2013-06-07 02:54:00
8:54 PM,61.2,55.9,83,29.91,7.0,WNW,8.1,-,N/A,,Overcast,290,2013-06-07 03:54:00
9:54 PM,60.6,55.9,85,29.92,7.0,NW,5.8,-,N/A,,Overcast,310,2013-06-07 04:54:00
10:54 PM,61.2,56.1,83,29.92,7.0,NNW,4.6,-,N/A,,Overcast,330,2013-06-07 05:54:00
11:54 PM,-9999,-9999,N/A,-9999,-9999.0,NNW,3.5,-,N/A,,Overcast,330,2013-06-07 06:54:00